createdAt,value
2022-10-23T00:00:43.214Z,101095.84
2022-10-23T00:03:12.602Z,101104.22
2022-10-23T00:05:41.676Z,101103.69
2022-10-23T00:08:09.433Z,101107.09
2022-10-23T00:10:41.378Z,101100.78
2022-10-23T00:13:09.716Z,101099.94
2022-10-23T00:15:38.111Z,101108.09
2022-10-23T00:18:06.676Z,101097.69
2022-10-23T00:20:36.085Z,101095.81
2022-10-23T00:23:04.010Z,101106.41
2022-10-23T00:25:32.566Z,101096.97
2022-10-23T00:28:00.542Z,101093.41
2022-10-23T00:30:28.499Z,101099.00
2022-10-23T00:32:57.101Z,101097.78
2022-10-23T00:35:25.003Z,101106.31
2022-10-23T00:37:54.598Z,101106.16
2022-10-23T00:40:22.516Z,101102.88
2022-10-23T00:42:50.444Z,101100.16
2022-10-23T00:45:22.399Z,101105.25
2022-10-23T00:47:51.082Z,101099.47
2022-10-23T00:50:20.428Z,101102.88
2022-10-23T00:52:51.748Z,101098.59
2022-10-23T00:55:24.445Z,101105.41
2022-10-23T00:57:52.620Z,101095.69
2022-10-23T01:00:23.871Z,101098.34
2022-10-23T01:02:52.310Z,101098.72
2022-10-23T01:05:25.028Z,101104.84
2022-10-23T01:07:58.961Z,101101.53
2022-10-23T01:10:36.089Z,101095.06
2022-10-23T01:13:12.594Z,101103.94
2022-10-23T01:15:46.293Z,101102.72
2022-10-23T01:18:22.242Z,101103.53
2022-10-23T01:20:59.305Z,101096.88
2022-10-23T01:23:44.424Z,101099.94
2022-10-23T01:26:27.772Z,101106.72
2022-10-23T01:29:02.697Z,101105.34
2022-10-23T01:31:35.565Z,101097.47
2022-10-23T01:34:14.081Z,101098.50
2022-10-23T01:36:48.321Z,101104.09
2022-10-23T01:39:19.869Z,101093.63
2022-10-23T01:41:52.845Z,101095.19
2022-10-23T01:44:32.533Z,101108.16
2022-10-23T01:47:02.636Z,101119.22
2022-10-23T01:49:34.794Z,101113.59
2022-10-23T01:52:07.486Z,101111.16
2022-10-23T01:54:40.653Z,101110.25
2022-10-23T01:57:11.915Z,101114.72
2022-10-23T01:59:46.398Z,101116.19
2022-10-23T02:02:15.981Z,101116.34
2022-10-23T02:04:50.776Z,101114.66
2022-10-23T02:07:18.810Z,101126.19
2022-10-23T02:09:46.800Z,101120.34
2022-10-23T02:12:20.051Z,101114.03
2022-10-23T02:14:56.050Z,101115.03
2022-10-23T02:17:34.413Z,101111.44
2022-10-23T02:20:15.287Z,101109.75
2022-10-23T02:22:53.318Z,101108.03
2022-10-23T02:25:26.698Z,101115.13
2022-10-23T02:27:59.539Z,101107.09
2022-10-23T02:30:38.960Z,101096.28
2022-10-23T02:33:11.853Z,101093.75
2022-10-23T02:35:39.965Z,101102.97
2022-10-23T02:38:33.314Z,101097.34
2022-10-23T02:41:11.521Z,101100.78
2022-10-23T02:43:48.287Z,101103.38
2022-10-23T02:46:23.429Z,101108.25
2022-10-23T02:48:59.201Z,101096.97
2022-10-23T02:51:36.648Z,101104.13
2022-10-23T02:54:08.723Z,101106.25
2022-10-23T02:56:45.388Z,101108.88
2022-10-23T02:59:24.712Z,101116.94
2022-10-23T03:02:02.024Z,101116.06
2022-10-23T03:04:32.923Z,101110.94
2022-10-23T03:07:01.299Z,101123.84
2022-10-23T03:09:29.767Z,101115.50
2022-10-23T03:11:57.759Z,101122.69
2022-10-23T03:14:25.811Z,101125.03
2022-10-23T03:16:55.155Z,101126.19
2022-10-23T03:19:23.226Z,101126.19
2022-10-23T03:21:51.112Z,101134.50
2022-10-23T03:24:19.878Z,101121.19
2022-10-23T03:26:48.134Z,101132.03
2022-10-23T03:29:16.080Z,101135.13
2022-10-23T03:31:46.774Z,101146.63
2022-10-23T03:34:16.066Z,101144.34
2022-10-23T03:36:44.169Z,101156.81
2022-10-23T03:39:12.199Z,101152.97
2022-10-23T03:41:40.204Z,101151.72
2022-10-23T03:44:08.993Z,101151.66
2022-10-23T03:46:36.992Z,101157.03
2022-10-23T03:49:05.859Z,101162.38
2022-10-23T03:51:35.886Z,101154.50
2022-10-23T03:54:05.270Z,101160.81
2022-10-23T03:56:33.664Z,101163.78
2022-10-23T03:59:01.650Z,101170.56
2022-10-23T04:01:29.732Z,101177.88
2022-10-23T04:03:57.718Z,101170.25
2022-10-23T04:06:27.156Z,101167.81
2022-10-23T04:08:59.540Z,101163.69
2022-10-23T04:11:27.744Z,101168.13
2022-10-23T04:13:55.680Z,101166.69
2022-10-23T04:16:24.270Z,101175.91
2022-10-23T04:18:53.005Z,101167.91
2022-10-23T04:21:20.967Z,101162.88
2022-10-23T04:23:48.991Z,101169.72
2022-10-23T04:26:20.750Z,101162.28
2022-10-23T04:28:49.083Z,101173.47
2022-10-23T04:31:17.277Z,101170.22
2022-10-23T04:33:45.286Z,101182.69
2022-10-23T04:36:27.063Z,101183.66
2022-10-23T04:38:55.175Z,101173.63
2022-10-23T04:41:24.592Z,101177.31
2022-10-23T04:43:52.652Z,101174.75
2022-10-23T04:46:21.057Z,101177.16
2022-10-23T04:48:51.287Z,101173.47
2022-10-23T04:51:39.331Z,101182.50
2022-10-23T04:54:37.404Z,101179.38
2022-10-23T04:57:24.793Z,101175.50
2022-10-23T05:00:15.652Z,101173.06
2022-10-23T05:02:53.207Z,101187.41
2022-10-23T05:05:21.994Z,101188.25
2022-10-23T05:08:10.480Z,101187.81
2022-10-23T05:10:53.417Z,101184.63
2022-10-23T05:13:22.768Z,101188.50
2022-10-23T05:15:53.209Z,101187.25
2022-10-23T05:18:26.128Z,101189.13
2022-10-23T05:20:59.220Z,101196.31
2022-10-23T05:23:28.400Z,101185.75
2022-10-23T05:26:03.233Z,101189.75
2022-10-23T05:28:33.888Z,101198.97
2022-10-23T05:31:05.088Z,101189.75
2022-10-23T05:33:37.560Z,101194.38
2022-10-23T05:36:07.321Z,101193.50
2022-10-23T05:38:36.182Z,101195.09
2022-10-23T05:41:11.567Z,101205.13
2022-10-23T05:43:40.945Z,101200.78
2022-10-23T05:46:28.023Z,101205.91
2022-10-23T05:49:31.585Z,101203.78
2022-10-23T05:52:21.940Z,101209.59
2022-10-23T05:55:12.351Z,101209.00
2022-10-23T05:58:03.126Z,101198.97
2022-10-23T06:00:58.668Z,101203.09
2022-10-23T06:03:46.928Z,101213.22
2022-10-23T06:06:15.485Z,101214.25
2022-10-23T06:08:49.408Z,101211.84
2022-10-23T06:11:20.673Z,101222.13
2022-10-23T06:16:32.285Z,101226.50
2022-10-23T06:19:01.031Z,101223.16
2022-10-23T06:21:29.029Z,101231.75
2022-10-23T06:23:57.603Z,101239.31
2022-10-23T06:26:32.659Z,101233.25
2022-10-23T06:29:12.383Z,101237.94
2022-10-23T06:31:44.093Z,101227.75
2022-10-23T06:34:13.972Z,101225.09
2022-10-23T06:36:42.703Z,101225.72
2022-10-23T06:39:31.960Z,101242.91
2022-10-23T06:42:15.648Z,101238.69
2022-10-23T06:44:55.652Z,101238.63
2022-10-23T06:47:52.662Z,101237.88
2022-10-23T06:50:49.343Z,101234.53
2022-10-23T06:53:23.735Z,101235.47
2022-10-23T06:56:00.526Z,101241.19
2022-10-23T06:58:28.754Z,101246.38
2022-10-23T07:01:06.802Z,101237.47
2022-10-23T07:03:37.098Z,101246.53
2022-10-23T07:06:10.256Z,101240.41
2022-10-23T07:08:39.816Z,101240.97
2022-10-23T07:11:27.500Z,101251.06
2022-10-23T07:13:56.939Z,101257.75
2022-10-23T07:16:25.535Z,101248.69
2022-10-23T07:18:59.494Z,101256.53
2022-10-23T07:21:28.097Z,101254.13
2022-10-23T07:24:02.927Z,101245.00
2022-10-23T07:26:32.885Z,101245.69
2022-10-23T07:29:01.083Z,101257.09
2022-10-23T07:31:29.377Z,101253.84
2022-10-23T07:34:17.008Z,101260.28
2022-10-23T07:36:47.348Z,101259.88
2022-10-23T07:39:15.677Z,101273.81
2022-10-23T07:41:50.856Z,101263.53
2022-10-23T07:44:21.970Z,101265.22
2022-10-23T07:46:53.915Z,101272.13
2022-10-23T07:49:23.388Z,101263.66
2022-10-23T07:51:52.848Z,101274.44
2022-10-23T07:54:21.763Z,101276.81
2022-10-23T07:57:01.984Z,101276.56
2022-10-23T07:59:55.717Z,101265.66
2022-10-23T08:02:25.283Z,101274.53
2022-10-23T08:04:55.409Z,101273.09
2022-10-23T08:07:28.741Z,101275.66
2022-10-23T08:09:58.717Z,101276.63
2022-10-23T08:12:27.534Z,101275.28
2022-10-23T08:14:56.594Z,101278.78
2022-10-23T08:17:28.349Z,101277.22
2022-10-23T08:20:09.799Z,101279.69
2022-10-23T08:22:42.894Z,101272.47
2022-10-23T08:25:13.195Z,101274.84
2022-10-23T08:27:41.560Z,101281.03
2022-10-23T08:30:11.332Z,101275.88
2022-10-23T08:32:39.421Z,101277.28
2022-10-23T08:35:09.837Z,101273.75
2022-10-23T08:37:38.613Z,101275.66
2022-10-23T08:40:07.953Z,101266.50
2022-10-23T08:43:01.056Z,101267.28
2022-10-23T08:45:34.472Z,101270.53
2022-10-23T08:48:23.698Z,101269.75
2022-10-23T08:51:28.392Z,101266.94
2022-10-23T08:54:04.020Z,101268.25
2022-10-23T08:56:36.033Z,101268.94
2022-10-23T08:59:12.303Z,101273.66
2022-10-23T09:01:43.861Z,101279.06
2022-10-23T09:04:14.302Z,101272.94
2022-10-23T09:06:49.809Z,101270.84
2022-10-23T09:09:39.928Z,101273.72
2022-10-23T09:12:12.802Z,101269.16
2022-10-23T09:14:56.535Z,101266.38
2022-10-23T09:17:26.790Z,101267.03
2022-10-23T09:20:00.540Z,101280.81
2022-10-23T09:22:30.664Z,101279.75
2022-10-23T09:24:58.640Z,101274.94
2022-10-23T09:27:26.561Z,101264.41
2022-10-23T09:29:56.343Z,101271.03
2022-10-23T09:32:35.241Z,101268.47
2022-10-23T09:35:03.296Z,101261.84
2022-10-23T09:37:35.916Z,101262.91
2022-10-23T09:40:19.032Z,101264.34
2022-10-23T09:42:55.653Z,101272.09
2022-10-23T09:45:29.725Z,101265.72
2022-10-23T09:48:15.244Z,101249.81
2022-10-23T09:51:01.990Z,101254.38
2022-10-23T09:53:35.941Z,101246.53
2022-10-23T09:56:07.847Z,101252.00
2022-10-23T09:58:39.772Z,101245.91
2022-10-23T10:01:07.896Z,101247.94
2022-10-23T10:03:53.333Z,101246.03
2022-10-23T10:06:28.008Z,101240.06
2022-10-23T10:08:59.250Z,101230.81
2022-10-23T10:11:35.096Z,101234.84
2022-10-23T10:14:41.576Z,101231.31
2022-10-23T10:17:20.116Z,101228.19
2022-10-23T10:20:08.344Z,101229.28
2022-10-23T10:22:42.919Z,101231.69
2022-10-23T10:25:18.417Z,101221.72
2022-10-23T10:28:00.219Z,101221.84
2022-10-23T10:30:37.976Z,101218.16
2022-10-23T10:33:10.565Z,101217.47
2022-10-23T10:35:44.193Z,101205.59
2022-10-23T10:38:23.759Z,101206.63
2022-10-23T10:41:15.414Z,101202.63
2022-10-23T10:43:53.520Z,101200.25
2022-10-23T10:46:28.969Z,101202.84
2022-10-23T10:49:02.685Z,101202.47
2022-10-23T10:51:41.863Z,101198.22
2022-10-23T10:54:22.166Z,101188.88
2022-10-23T10:56:51.799Z,101182.97
2022-10-23T10:59:24.405Z,101186.59
2022-10-23T11:02:01.227Z,101183.81
2022-10-23T11:04:38.279Z,101180.44
2022-10-23T11:07:10.881Z,101172.91
2022-10-23T11:09:40.352Z,101180.72
2022-10-23T11:12:17.930Z,101176.16
2022-10-23T11:14:46.654Z,101169.69
2022-10-23T11:17:20.109Z,101164.06
2022-10-23T11:19:52.992Z,101153.53
2022-10-23T11:22:27.359Z,101145.25
2022-10-23T11:25:19.422Z,101140.63
2022-10-23T11:28:13.001Z,101126.31
2022-10-23T11:30:56.313Z,101127.75
2022-10-23T11:34:02.608Z,101123.97
2022-10-23T11:36:45.604Z,101111.41
2022-10-23T11:39:21.135Z,101114.25
2022-10-23T11:41:52.194Z,101108.50
2022-10-23T11:44:39.300Z,101105.56
2022-10-23T11:47:27.401Z,101103.00
2022-10-23T11:50:15.716Z,101097.03
2022-10-23T11:53:15.815Z,101102.72
2022-10-23T11:56:06.925Z,101104.22
2022-10-23T11:58:46.893Z,101105.59
2022-10-23T12:01:34.969Z,101088.22
2022-10-23T12:04:08.049Z,101092.19
2022-10-23T12:06:41.452Z,101094.63
2022-10-23T12:09:24.617Z,101092.81
2022-10-23T12:12:15.260Z,101080.56
2022-10-23T12:14:45.174Z,101083.78
2022-10-23T12:17:36.925Z,101078.72
2022-10-23T12:20:38.728Z,101067.94
2022-10-23T12:23:42.150Z,101068.50
2022-10-23T12:26:28.829Z,101077.34
2022-10-23T12:29:05.004Z,101081.78
2022-10-23T12:31:47.028Z,101083.56
2022-10-23T12:34:29.389Z,101071.56
2022-10-23T12:37:15.915Z,101070.25
2022-10-23T12:39:43.884Z,101061.28
2022-10-23T12:42:18.777Z,101052.81
2022-10-23T12:44:46.825Z,101042.03
2022-10-23T12:47:19.810Z,101053.44
2022-10-23T12:49:52.425Z,101050.38
2022-10-23T12:52:22.094Z,101048.22
2022-10-23T12:54:50.899Z,101051.00
2022-10-23T12:57:23.346Z,101042.41
2022-10-23T12:59:52.531Z,101049.56
2022-10-23T13:02:26.304Z,101043.50
2022-10-23T13:04:58.526Z,101038.91
2022-10-23T13:07:28.961Z,101048.81
2022-10-23T13:10:01.889Z,101036.91
2022-10-23T13:12:39.616Z,101039.25
2022-10-23T13:15:18.298Z,101032.72
2022-10-23T13:17:48.031Z,101033.75
2022-10-23T13:20:26.380Z,101024.19
2022-10-23T13:23:00.355Z,101020.25
2022-10-23T13:25:31.114Z,101028.00
2022-10-23T13:28:20.282Z,101024.25
2022-10-23T13:31:23.952Z,101027.34
2022-10-23T13:34:04.583Z,101026.00
2022-10-23T13:36:37.161Z,101016.56
2022-10-23T13:39:15.869Z,101011.00
2022-10-23T13:41:45.995Z,101009.06
2022-10-23T13:44:15.620Z,101010.94
2022-10-23T13:46:44.239Z,101009.84
2022-10-23T13:49:12.306Z,101010.84
2022-10-23T13:51:51.045Z,101005.84
2022-10-23T13:54:21.475Z,101006.72
2022-10-23T13:56:51.075Z,101003.63
2022-10-23T13:59:25.895Z,101004.53
2022-10-23T14:01:55.881Z,100989.75
2022-10-23T14:04:24.003Z,100985.25
2022-10-23T14:06:58.610Z,100977.06
2022-10-23T14:09:26.921Z,100988.22
2022-10-23T14:11:54.831Z,100979.94
2022-10-23T14:14:22.772Z,100982.03
2022-10-23T14:16:52.799Z,100984.69
2022-10-23T14:19:20.899Z,100979.63
2022-10-23T14:21:48.798Z,100973.75
2022-10-23T14:24:18.136Z,100973.88
2022-10-23T14:26:46.081Z,100966.28
2022-10-23T14:29:21.297Z,100970.41
2022-10-23T14:31:52.120Z,100963.25
2022-10-23T14:34:20.106Z,100967.34
2022-10-23T14:36:50.660Z,100964.31
2022-10-23T14:39:25.927Z,100967.34
2022-10-23T14:41:53.899Z,100968.44
2022-10-23T14:44:21.818Z,100964.84
2022-10-23T14:46:49.731Z,100965.75
2022-10-23T14:49:17.654Z,100962.78
2022-10-23T14:51:45.642Z,100958.72
2022-10-23T14:54:13.551Z,100965.41
2022-10-23T14:56:42.891Z,100962.41
2022-10-23T14:59:11.747Z,100956.34
2022-10-23T15:01:43.896Z,100964.16
2022-10-23T15:04:14.677Z,100971.38
2022-10-23T15:06:43.270Z,100969.31
2022-10-23T15:09:11.288Z,100962.34
2022-10-23T15:11:39.314Z,100951.06
2022-10-23T15:14:09.068Z,100956.47
2022-10-23T15:16:41.380Z,100953.38
2022-10-23T15:19:13.490Z,100955.44
2022-10-23T15:21:45.496Z,100957.97
2022-10-23T15:24:13.393Z,100959.75
2022-10-23T15:26:43.126Z,100962.53
2022-10-23T15:29:14.507Z,100964.00
2022-10-23T15:31:50.447Z,100961.19
2022-10-23T15:34:21.042Z,100965.00
2022-10-23T15:36:49.547Z,100967.38
2022-10-23T15:39:20.231Z,100963.56
2022-10-23T15:41:51.082Z,100958.41
2022-10-23T15:44:22.861Z,100955.22
2022-10-23T15:46:51.661Z,100955.09
2022-10-23T15:49:20.664Z,100953.81
2022-10-23T15:51:48.648Z,100951.50
2022-10-23T15:54:19.211Z,100953.28
2022-10-23T15:56:49.106Z,100947.81
2022-10-23T15:59:17.454Z,100951.69
2022-10-23T16:01:46.961Z,100951.31
2022-10-23T16:04:16.088Z,100962.56
2022-10-23T16:06:44.753Z,100964.06
2022-10-23T16:09:12.648Z,100961.53
2022-10-23T16:11:42.490Z,100956.47
2022-10-23T16:14:14.005Z,100958.78
2022-10-23T16:16:42.273Z,100951.38
2022-10-23T16:19:13.087Z,100950.94
2022-10-23T16:21:42.170Z,100947.53
2022-10-23T16:24:10.896Z,100944.97
2022-10-23T16:26:39.028Z,100946.44
2022-10-23T16:29:09.632Z,100946.63
2022-10-23T16:31:37.806Z,100952.38
2022-10-23T16:34:06.790Z,100949.19
2022-10-23T16:36:39.097Z,100942.38
2022-10-23T16:39:26.000Z,100952.78
2022-10-23T16:42:12.596Z,100951.28
2022-10-23T16:45:19.390Z,100946.59
2022-10-23T16:47:47.320Z,100952.53
2022-10-23T16:50:16.366Z,100956.75
2022-10-23T16:52:45.847Z,100958.91
2022-10-23T16:55:14.275Z,100960.34
2022-10-23T16:57:42.644Z,100965.19
2022-10-23T17:00:11.670Z,100963.34
2022-10-23T17:02:39.685Z,100967.13
2022-10-23T17:05:08.164Z,100967.78
2022-10-23T17:07:37.202Z,100963.88
2022-10-23T17:10:07.513Z,100961.69
2022-10-23T17:12:37.113Z,100964.06
2022-10-23T17:15:06.059Z,100966.09
2022-10-23T17:17:34.020Z,100965.25
2022-10-23T17:20:01.967Z,100965.34
2022-10-23T17:22:29.927Z,100961.72
2022-10-23T17:24:58.005Z,100951.34
2022-10-23T17:27:27.326Z,100959.81
2022-10-23T17:29:55.524Z,100954.38
2022-10-23T17:32:23.586Z,100958.72
2022-10-23T17:34:51.579Z,100955.72
2022-10-23T17:37:19.685Z,100952.50
2022-10-23T17:39:47.664Z,100954.19
2022-10-23T17:42:16.028Z,100962.41
2022-10-23T17:44:45.345Z,100972.72
2022-10-23T17:47:13.422Z,100966.13
2022-10-23T17:49:44.189Z,100960.53
2022-10-23T17:52:15.081Z,100956.06
2022-10-23T17:54:43.253Z,100953.19
2022-10-23T17:57:11.208Z,100947.44
2022-10-23T17:59:39.196Z,100950.25
2022-10-23T18:02:08.762Z,100952.03
2022-10-23T18:04:36.791Z,100951.53
2022-10-23T18:07:04.724Z,100954.78
2022-10-23T18:09:32.738Z,100948.25
2022-10-23T18:12:00.679Z,100945.50
2022-10-23T18:14:29.656Z,100943.16
2022-10-23T18:16:57.876Z,100933.56
2022-10-23T18:19:28.256Z,100951.31
2022-10-23T18:21:56.448Z,100946.16
2022-10-23T18:24:25.655Z,100949.31
2022-10-23T18:26:53.902Z,100953.25
2022-10-23T18:29:22.815Z,100953.75
2022-10-23T18:31:50.715Z,100949.81
2022-10-23T18:34:20.992Z,100956.25
2022-10-23T18:36:51.381Z,100959.59
2022-10-23T18:39:22.598Z,100950.69
2022-10-23T18:41:52.991Z,100950.44
2022-10-23T18:44:23.013Z,100949.09
2022-10-23T18:46:51.288Z,100947.00
2022-10-23T18:49:20.808Z,100943.59
2022-10-23T18:51:50.839Z,100944.44
2022-10-23T18:54:20.725Z,100944.59
2022-10-23T18:56:49.472Z,100944.53
2022-10-23T18:59:19.765Z,100942.09
2022-10-23T19:01:47.985Z,100935.84
2022-10-23T19:04:17.991Z,100933.38
2022-10-23T19:06:47.001Z,100929.06
2022-10-23T19:09:16.088Z,100929.91
2022-10-23T19:11:45.346Z,100928.84
2022-10-23T19:14:13.514Z,100926.09
2022-10-23T19:16:46.363Z,100925.84
2022-10-23T19:19:19.559Z,100921.31
2022-10-23T19:21:48.460Z,100917.06
2022-10-23T19:24:21.004Z,100924.06
2022-10-23T19:26:49.691Z,100918.75
2022-10-23T19:29:22.867Z,100913.75
2022-10-23T19:31:51.759Z,100911.56
2022-10-23T19:34:20.526Z,100907.97
2022-10-23T19:36:48.638Z,100898.28
2022-10-23T19:39:18.701Z,100892.59
2022-10-23T19:41:46.864Z,100900.16
2022-10-23T19:44:15.718Z,100901.97
2022-10-23T19:46:43.495Z,100897.75
2022-10-23T19:49:11.870Z,100898.69
2022-10-23T19:51:39.901Z,100904.44
2022-10-23T19:54:09.733Z,100905.28
2022-10-23T19:56:39.159Z,100907.75
2022-10-23T19:59:07.295Z,100895.06
2022-10-23T20:01:36.686Z,100912.28
2022-10-23T20:04:04.710Z,100914.84
2022-10-23T20:06:35.424Z,100922.06
2022-10-23T20:09:07.989Z,100918.91
2022-10-23T20:11:36.660Z,100922.91
2022-10-23T20:14:06.128Z,100919.69
2022-10-23T20:16:36.223Z,100925.06
2022-10-23T20:19:07.366Z,100919.56
2022-10-23T20:21:36.627Z,100914.97
2022-10-23T20:24:04.667Z,100913.00
2022-10-23T20:26:32.647Z,100904.88
2022-10-23T20:29:00.727Z,100907.19
2022-10-23T20:31:30.098Z,100905.66
2022-10-23T20:33:58.067Z,100906.06
2022-10-23T20:36:28.605Z,100904.25
2022-10-23T20:38:57.375Z,100899.97
2022-10-23T20:41:27.182Z,100893.63
2022-10-23T20:43:56.580Z,100896.50
2022-10-23T20:46:24.867Z,100893.13
2022-10-23T20:48:54.388Z,100886.69
2022-10-23T20:51:24.201Z,100886.69
2022-10-23T20:53:54.579Z,100897.28
2022-10-23T20:56:29.922Z,100893.03
2022-10-23T20:58:58.240Z,100906.31
2022-10-23T21:01:26.863Z,100899.56
2022-10-23T21:03:58.325Z,100897.50
2022-10-23T21:06:27.957Z,100905.25
2022-10-23T21:08:56.914Z,100898.34
2022-10-23T21:11:25.051Z,100899.28
2022-10-23T21:13:53.119Z,100894.19
2022-10-23T21:16:26.180Z,100889.16
2022-10-23T21:18:58.557Z,100890.00
2022-10-23T21:21:27.919Z,100891.25
2022-10-23T21:23:58.084Z,100891.16
2022-10-23T21:26:27.303Z,100890.78
2022-10-23T21:29:13.707Z,100883.38
2022-10-23T21:31:43.909Z,100889.53
2022-10-23T21:34:13.294Z,100891.16
2022-10-23T21:37:00.234Z,100887.75
2022-10-23T21:39:29.746Z,100890.50
2022-10-23T21:41:57.897Z,100894.50
2022-10-23T21:44:25.865Z,100888.69
2022-10-23T21:46:55.426Z,100888.81
2022-10-23T21:49:24.795Z,100889.84
2022-10-23T21:51:53.101Z,100883.50
2022-10-23T21:54:21.081Z,100885.31
2022-10-23T21:56:50.592Z,100889.13
2022-10-23T21:59:21.918Z,100890.72
2022-10-23T22:01:50.245Z,100891.28
2022-10-23T22:04:20.075Z,100900.97
2022-10-23T22:06:50.793Z,100890.72
2022-10-23T22:09:21.115Z,100890.25
2022-10-23T22:11:49.798Z,100894.53
2022-10-23T22:14:17.847Z,100892.53
2022-10-23T22:16:46.150Z,100898.19
2022-10-23T22:19:16.107Z,100896.03
2022-10-23T22:21:45.010Z,100895.56
2022-10-23T22:24:14.473Z,100896.44
2022-10-23T22:26:45.136Z,100902.09
2022-10-23T22:29:14.864Z,100898.22
2022-10-23T22:31:45.752Z,100893.56
2022-10-23T22:34:27.070Z,100906.53
2022-10-23T22:37:02.056Z,100901.41
2022-10-23T22:39:31.445Z,100899.94
2022-10-23T22:41:59.443Z,100894.78
2022-10-23T22:44:27.868Z,100897.06
2022-10-23T22:46:55.825Z,100895.28
2022-10-23T22:49:23.781Z,100900.66
2022-10-23T22:51:52.118Z,100899.44
2022-10-23T22:54:20.123Z,100904.00
2022-10-23T22:56:49.594Z,100901.25
2022-10-23T22:59:17.538Z,100897.97
2022-10-23T23:01:48.220Z,100894.75
2022-10-23T23:07:06.569Z,100900.38
2022-10-23T23:09:37.676Z,100892.81
2022-10-23T23:12:07.980Z,100891.00
2022-10-23T23:14:36.025Z,100898.91
2022-10-23T23:17:04.265Z,100899.31
2022-10-23T23:19:32.249Z,100898.78
2022-10-23T23:22:00.857Z,100901.53
2022-10-23T23:24:29.001Z,100900.41
2022-10-23T23:26:57.023Z,100907.22
2022-10-23T23:29:26.944Z,100898.25
2022-10-23T23:31:54.887Z,100895.03
2022-10-23T23:34:22.847Z,100893.69
2022-10-23T23:36:50.836Z,100894.63
2022-10-23T23:39:18.864Z,100890.47
2022-10-23T23:41:46.812Z,100891.03
2022-10-23T23:44:14.748Z,100885.91
2022-10-23T23:46:43.990Z,100880.50
2022-10-23T23:49:12.208Z,100885.13
2022-10-23T23:51:40.192Z,100886.94
2022-10-23T23:54:08.123Z,100883.88
2022-10-23T23:56:36.080Z,100883.41
2022-10-23T23:59:04.018Z,100883.09
